Agness, Oregon
Current Conditions -  °F | °C
As of 4:56 PM on Saturday 25 Oct 2014 (Local Time) from KBOK Reporting Station
Haze Haze  
Wind Chill: 14°   Ceiling: 2000
Heat Index: 14°   Visibility: 3mi
Dew Point: 13°   Wind: 6mph
Humidity: 93%   Direction: NA
Pressure: 29.95"   Gusts: NA
Location:  42.56°N, 124.07°W
Report Text: KBOK 252356Z AUTO VRB05KT 3SM BR BKN020 BKN048 OVC060 14/13 A2995 RMK AO2 51048 60017 T01380127 10150 20127 BKN V SCT RAE10 P0000 SLP142
Loading
Personal Weather Stations






























Interactive Weather Map
Tropical Storm Tracking
New forecast layout! Learn more

10-Day Weather Forecast

Advertisements
Track Severe Weather on mobile